Time;durP1;ratioP1;P1;durP2;ratioP2;P2;SDS_P1;SDS_P2;PMS_P1;PMS_P2;Temp;Humidity;BMP_temperature;BMP_pressure;BME280_temperature;BME280_humidity;BME280_pressure;Samples;Min_cycle;Max_cycle;Signal;HPM_P1;HPM_P2
2022/03/20 00:01:26;;;;;;;;;14.75;13.75;;;;;6.10;45.44;103119.78;146607;584;46016;-74
2022/03/20 00:04:18;;;;;;;;;15.75;14.25;;;;;6.09;44.78;103113.72;146612;618;46010;-74
2022/03/20 00:07:11;;;;;;;;;15.75;12.25;;;;;6.06;43.62;103115.06;146607;564;46013;-76
2022/03/20 00:10:04;;;;;;;;;12.25;10.75;;;;;5.97;44.60;103108.16;146610;648;46012;-76
2022/03/20 00:12:57;;;;;;;;;11.50;10.50;;;;;5.91;45.26;103093.69;146606;569;46016;-76
2022/03/20 00:15:51;;;;;;;;;11.25;7.75;;;;;5.78;44.81;103104.31;146612;569;46012;-75
2022/03/20 00:18:43;;;;;;;;;14.50;14.00;;;;;5.77;45.89;103100.84;146607;613;45016;-75
2022/03/20 00:21:35;;;;;;;;;13.25;12.00;;;;;5.76;46.82;103105.78;146612;569;45021;-74
2022/03/20 00:24:28;;;;;;;;;13.25;11.25;;;;;5.63;45.60;103110.38;146609;600;45919;-73
2022/03/20 00:27:20;;;;;;;;;13.75;12.00;;;;;5.55;45.19;103118.19;146608;584;46010;-73
2022/03/20 00:30:13;;;;;;;;;13.50;12.25;;;;;5.52;45.54;103107.53;146609;611;46014;-77
2022/03/20 00:33:06;;;;;;;;;11.75;10.75;;;;;5.57;46.13;103105.47;146608;638;46020;-73
2022/03/20 00:35:58;;;;;;;;;17.00;15.25;;;;;5.63;46.94;103107.78;146608;579;46014;-73
2022/03/20 00:38:50;;;;;;;;;16.50;16.00;;;;;5.66;45.11;103093.59;146608;588;46020;-73
2022/03/20 00:41:43;;;;;;;;;16.00;12.25;;;;;5.72;46.50;103106.22;146609;585;45016;-74
2022/03/20 00:44:35;;;;;;;;;11.25;11.25;;;;;5.75;45.92;103096.25;146610;621;46010;-74
2022/03/20 00:47:27;;;;;;;;;16.25;15.25;;;;;5.79;46.21;103096.78;146607;587;46012;-73
2022/03/20 00:50:20;;;;;;;;;13.00;13.00;;;;;5.85;46.03;103109.38;146612;584;45050;-73
2022/03/20 00:53:12;;;;;;;;;11.50;9.75;;;;;5.84;44.37;103099.84;146608;581;46012;-74
2022/03/20 00:56:04;;;;;;;;;16.00;10.25;;;;;5.78;42.54;103096.59;146612;621;46010;-72
2022/03/20 00:58:56;;;;;;;;;16.75;12.75;;;;;5.77;44.08;103099.94;146607;599;46016;-73
2022/03/20 01:01:48;;;;;;;;;12.00;11.00;;;;;5.66;42.23;103096.16;146609;570;46010;-73
2022/03/20 01:04:41;;;;;;;;;8.00;6.25;;;;;5.49;42.17;103094.34;146609;627;46013;-74
2022/03/20 01:07:33;;;;;;;;;11.50;11.00;;;;;5.42;44.19;103101.22;146610;563;46020;-73
2022/03/20 01:10:25;;;;;;;;;7.75;7.75;;;;;5.33;42.56;103098.56;146611;615;46012;-74
2022/03/20 01:13:18;;;;;;;;;8.25;7.75;;;;;5.28;42.16;103099.69;146613;704;46010;-73
2022/03/20 01:16:10;;;;;;;;;11.25;9.75;;;;;5.17;40.85;103101.09;146609;576;45039;-73
2022/03/20 01:19:02;;;;;;;;;11.50;10.00;;;;;5.15;41.58;103093.97;146609;570;46020;-73
2022/03/20 01:21:55;;;;;;;;;11.25;8.75;;;;;5.16;42.16;103096.69;146606;575;46012;-74
2022/03/20 01:24:47;;;;;;;;;9.50;8.25;;;;;5.18;42.16;103091.72;146609;604;46020;-74
2022/03/20 01:27:39;;;;;;;;;13.50;10.00;;;;;5.20;43.75;103088.59;146607;674;46014;-73
2022/03/20 01:30:31;;;;;;;;;12.00;11.00;;;;;5.26;43.11;103093.47;146610;566;46012;-72
2022/03/20 01:33:23;;;;;;;;;12.00;9.50;;;;;5.24;42.45;103092.41;146608;583;46015;-72
2022/03/20 01:36:15;;;;;;;;;8.25;6.75;;;;;5.26;43.39;103091.78;146610;595;46021;-72
2022/03/20 01:39:08;;;;;;;;;9.25;9.00;;;;;5.27;43.34;103092.75;146612;594;45014;-72
2022/03/20 01:42:00;;;;;;;;;7.75;7.75;;;;;5.30;42.80;103088.84;146611;604;46010;-72
2022/03/20 01:44:52;;;;;;;;;10.50;9.50;;;;;5.33;42.37;103081.47;146607;604;46012;-71
2022/03/20 01:47:47;;;;;;;;;14.75;13.25;;;;;5.39;43.60;103081.22;146610;576;46010;-71
2022/03/20 01:50:39;;;;;;;;;13.50;11.00;;;;;5.46;43.84;103077.66;146608;592;46016;-72
2022/03/20 01:53:33;;;;;;;;;10.50;10.00;;;;;5.52;43.71;103071.53;146613;579;45032;-73
2022/03/20 01:56:26;;;;;;;;;12.50;12.50;;;;;5.58;42.85;103076.44;146611;615;45014;-74
2022/03/20 01:59:22;;;;;;;;;9.25;7.75;;;;;5.56;42.78;103083.97;146609;566;46020;-76
2022/03/20 02:02:14;;;;;;;;;8.25;7.75;;;;;5.51;41.63;103072.28;146609;593;46012;-75
2022/03/20 02:05:07;;;;;;;;;11.25;8.75;;;;;5.50;43.41;103075.56;146609;594;46021;-76
2022/03/20 02:08:00;;;;;;;;;9.75;8.50;;;;;5.47;42.38;103070.09;146609;645;45016;-75
2022/03/20 02:10:52;;;;;;;;;8.75;7.75;;;;;5.46;42.80;103070.84;146611;569;45021;-76
2022/03/20 02:13:44;;;;;;;;;7.50;6.00;;;;;5.47;43.26;103070.09;146607;626;46016;-77
2022/03/20 02:16:37;;;;;;;;;10.00;7.25;;;;;5.52;44.21;103065.47;146608;610;46915;-76
2022/03/20 02:19:28;;;;;;;;;12.25;10.75;;;;;5.57;44.23;103078.06;146610;646;45017;-76
2022/03/20 02:22:21;;;;;;;;;10.00;9.00;;;;;5.59;43.52;103080.81;146613;606;45012;-70
2022/03/20 02:25:15;;;;;;;;;10.25;5.75;;;;;5.55;45.62;103076.09;146610;581;46015;-72
2022/03/20 02:28:07;;;;;;;;;11.00;8.50;;;;;5.48;46.39;103069.38;146606;610;47010;-71
2022/03/20 02:31:00;;;;;;;;;9.75;8.00;;;;;5.44;46.94;103074.91;146608;589;46014;-72
2022/03/20 02:33:52;;;;;;;;;9.50;8.75;;;;;5.35;46.15;103073.91;146610;566;46010;-69
2022/03/20 02:36:43;;;;;;;;;8.25;7.25;;;;;5.33;47.08;103080.56;146608;639;46016;-71
2022/03/20 02:39:37;;;;;;;;;10.25;10.00;;;;;5.28;46.90;103080.03;146608;673;46010;-71
2022/03/20 02:42:29;;;;;;;;;13.00;12.25;;;;;5.26;46.08;103084.06;146611;618;45035;-71
2022/03/20 02:45:27;;;;;;;;;10.25;9.00;;;;;5.24;46.68;103080.44;146611;653;46020;-73
2022/03/20 02:48:20;;;;;;;;;10.75;10.75;;;;;5.22;46.48;103087.06;146610;645;45015;-72
2022/03/20 02:51:15;;;;;;;;;24.75;21.50;;;;;5.24;47.57;103088.16;146611;637;45020;-73
2022/03/20 02:54:10;;;;;;;;;13.50;13.00;;;;;5.21;46.58;103085.25;146607;569;46016;-71
2022/03/20 02:57:02;;;;;;;;;10.75;9.25;;;;;5.22;45.38;103088.72;146610;606;46020;-72
2022/03/20 03:00:00;;;;;;;;;7.50;7.50;;;;;5.23;46.42;103086.34;146608;593;45016;-72
2022/03/20 03:02:54;;;;;;;;;11.50;9.75;;;;;5.23;47.86;103090.56;146610;570;45021;-72
2022/03/20 03:05:46;;;;;;;;;10.00;8.75;;;;;5.23;46.56;103091.50;146608;628;46012;-72
2022/03/20 03:11:48;;;;;;;;;10.00;8.25;;;;;5.13;44.93;103098.00;146608;563;46019;-74
2022/03/20 03:17:55;;;;;;;;;10.50;8.00;;;;;5.10;43.14;103085.72;146611;583;45016;-74
2022/03/20 03:20:48;;;;;;;;;13.00;11.00;;;;;5.09;43.82;103077.09;146610;635;46020;-74
2022/03/20 03:23:40;;;;;;;;;7.50;7.50;;;;;5.14;44.63;103080.19;146608;603;45016;-73
2022/03/20 03:26:32;;;;;;;;;8.50;8.50;;;;;5.21;45.14;103086.91;146612;582;45021;-74
2022/03/20 03:29:24;;;;;;;;;10.00;7.50;;;;;5.27;44.56;103092.75;146608;594;46016;-72
2022/03/20 03:32:16;;;;;;;;;10.00;10.00;;;;;5.26;46.42;103081.50;146612;739;45012;-73
2022/03/20 03:38:24;;;;;;;;;10.25;8.75;;;;;5.06;49.23;103061.31;146608;608;46020;-73
2022/03/20 03:41:16;;;;;;;;;10.25;8.25;;;;;5.25;50.39;103114.78;146606;656;46017;-73
2022/03/20 03:44:08;;;;;;;;;14.25;13.75;;;;;5.20;51.62;103118.50;146610;569;45020;-74
2022/03/20 03:47:01;;;;;;;;;14.75;12.00;;;;;5.08;51.83;103113.84;146608;566;46015;-70
2022/03/20 03:49:53;;;;;;;;;23.00;22.50;;;;;5.01;52.59;103126.75;146610;670;46010;-71
2022/03/20 03:52:45;;;;;;;;;20.50;18.50;;;;;4.97;53.32;103124.56;146609;602;45016;-72
2022/03/20 03:55:37;;;;;;;;;27.25;22.50;;;;;4.94;53.51;103126.81;146611;598;46010;-70
2022/03/20 03:58:29;;;;;;;;;13.75;13.25;;;;;4.96;53.45;103127.91;146606;619;46016;-71
2022/03/20 04:01:21;;;;;;;;;13.25;11.50;;;;;4.97;53.64;103123.66;146610;581;46020;-70
2022/03/20 04:04:14;;;;;;;;;34.25;31.25;;;;;5.00;53.35;103132.63;146608;578;46012;-70
2022/03/20 04:07:08;;;;;;;;;17.25;16.25;;;;;4.98;56.11;103128.06;146609;607;46010;-70
2022/03/20 04:10:00;;;;;;;;;17.25;13.00;;;;;4.91;56.14;103136.75;146607;678;45017;-71
2022/03/20 04:12:52;;;;;;;;;18.50;14.75;;;;;4.78;56.69;103128.41;146612;586;46020;-70
2022/03/20 04:15:44;;;;;;;;;17.00;15.00;;;;;4.72;56.46;103126.06;146606;636;46016;-80
2022/03/20 04:18:36;;;;;;;;;16.50;13.25;;;;;4.67;59.02;103139.13;146611;580;45021;-74
2022/03/20 04:21:28;;;;;;;;;16.50;15.50;;;;;4.54;57.93;103137.72;146607;586;46016;-74
2022/03/20 04:24:20;;;;;;;;;16.00;14.50;;;;;4.46;57.54;103132.47;146610;565;45021;-73
2022/03/20 04:27:13;;;;;;;;;19.00;16.75;;;;;4.40;58.68;103141.28;146609;585;45016;-73
2022/03/20 04:30:05;;;;;;;;;15.25;13.25;;;;;4.31;59.00;103132.53;146609;616;46010;-75
2022/03/20 04:32:58;;;;;;;;;19.00;17.75;;;;;4.27;57.24;103143.22;146608;619;46013;-73
2022/03/20 04:35:50;;;;;;;;;19.00;15.75;;;;;4.26;56.51;103140.44;146613;601;45030;-72
2022/03/20 04:38:43;;;;;;;;;26.50;23.00;;;;;4.22;57.20;103139.19;146608;603;46015;-72
2022/03/20 04:41:36;;;;;;;;;65.00;49.00;;;;;4.16;58.10;103135.91;146611;579;46020;-71
2022/03/20 04:44:28;;;;;;;;;37.00;33.00;;;;;4.13;57.57;103132.97;146607;607;46016;-71
2022/03/20 05:00:00;;;;;;;;;29.25;25.50;;;;;4.21;59.02;103141.59;146607;668;46020;-71
2022/03/20 05:02:53;;;;;;;;;26.25;22.00;;;;;4.12;58.20;103144.91;146607;632;45017;-69
2022/03/20 05:05:46;;;;;;;;;21.00;19.75;;;;;4.03;58.25;103143.84;146612;596;45012;-69
2022/03/20 05:08:39;;;;;;;;;22.00;18.25;;;;;3.97;52.61;103147.38;146606;603;46017;-69
2022/03/20 05:14:41;;;;;;;;;22.75;21.00;;;;;4.08;53.21;103145.31;146608;611;45016;-69
2022/03/20 05:17:33;;;;;;;;;26.25;23.50;;;;;4.10;52.02;103143.81;146605;652;46915;-69
2022/03/20 05:20:26;;;;;;;;;26.00;25.00;;;;;4.13;52.22;103146.72;146604;726;46016;-69
2022/03/20 05:23:18;;;;;;;;;28.75;23.75;;;;;4.16;52.99;103136.81;146607;577;46010;-68
2022/03/20 05:26:10;;;;;;;;;29.50;24.00;;;;;4.26;53.70;103153.28;146610;614;45021;-70
2022/03/20 05:29:02;;;;;;;;;30.00;25.25;;;;;4.34;54.02;103152.53;146609;593;46010;-74
2022/03/20 05:31:54;;;;;;;;;30.00;27.00;;;;;4.21;53.22;103110.78;146608;599;46016;-74
2022/03/20 05:34:47;;;;;;;;;31.25;29.00;;;;;4.49;53.04;103154.28;146609;586;46010;-75
2022/03/20 05:37:39;;;;;;;;;27.75;26.25;;;;;4.53;53.73;103151.31;146611;588;45014;-75
2022/03/20 05:40:31;;;;;;;;;29.75;26.00;;;;;4.61;54.88;103163.41;146628;632;45021;-74
2022/03/20 05:43:24;;;;;;;;;25.75;24.00;;;;;4.61;54.24;103159.88;146622;610;45016;-75
2022/03/20 05:46:16;;;;;;;;;37.75;31.50;;;;;4.54;54.43;103160.84;146628;570;45020;-80
2022/03/20 05:49:08;;;;;;;;;36.75;32.25;;;;;4.51;54.17;103160.50;146625;640;45016;-80
2022/03/20 05:52:01;;;;;;;;;30.50;29.00;;;;;4.51;53.54;103159.59;146632;767;45010;-78
2022/03/20 05:54:53;;;;;;;;;40.50;35.00;;;;;4.57;52.63;103162.84;146626;720;45017;-76
2022/03/20 05:58:04;;;;;;;;;29.50;25.25;;;;;4.65;52.99;103164.66;146628;568;45020;-77
2022/03/20 06:00:56;;;;;;;;;22.50;20.75;;;;;4.79;53.96;103166.22;146627;577;45014;-77
2022/03/20 06:03:49;;;;;;;;;21.50;18.75;;;;;4.86;52.73;103161.94;146628;575;45020;-76
2022/03/20 06:06:42;;;;;;;;;21.75;19.75;;;;;4.93;51.82;103158.41;146631;612;45012;-76
2022/03/20 06:09:35;;;;;;;;;20.75;18.50;;;;;4.99;48.21;103160.75;146627;604;45021;-77
2022/03/20 06:12:27;;;;;;;;;16.50;16.25;;;;;5.06;48.83;103159.03;146627;649;45016;-77
2022/03/20 06:15:19;;;;;;;;;15.75;14.25;;;;;5.16;50.81;103167.78;146630;681;45020;-77
2022/03/20 06:18:12;;;;;;;;;30.75;28.00;;;;;5.05;51.43;103126.38;146628;595;45012;-77
2022/03/20 06:21:06;;;;;;;;;42.00;35.75;;;;;5.37;51.03;103167.59;146630;595;45020;-77
2022/03/20 06:23:59;;;;;;;;;20.75;16.00;;;;;5.45;49.67;103159.09;146628;618;45013;-76
2022/03/20 06:26:51;;;;;;;;;36.00;30.00;;;;;5.54;50.13;103166.88;146630;759;45010;-77
2022/03/20 06:29:44;;;;;;;;;55.75;43.25;;;;;5.65;49.76;103161.28;146624;589;45016;-77
2022/03/20 06:32:37;;;;;;;;;34.50;32.75;;;;;5.77;49.04;103167.78;146626;639;46010;-76
2022/03/20 06:35:29;;;;;;;;;18.50;18.00;;;;;5.86;50.30;103164.38;146628;569;45014;-76
2022/03/20 06:38:21;;;;;;;;;15.00;15.00;;;;;5.91;48.62;103171.84;146624;564;46011;-77
2022/03/20 06:41:14;;;;;;;;;20.75;19.00;;;;;5.96;48.78;103172.37;146609;619;46014;-70
2022/03/20 06:44:06;;;;;;;;;44.00;38.25;;;;;6.00;48.70;103183.16;146610;601;45020;-71
2022/03/20 06:46:58;;;;;;;;;29.75;25.75;;;;;6.02;46.76;103193.66;146608;667;46012;-71
2022/03/20 06:49:51;;;;;;;;;21.00;18.25;;;;;5.90;48.82;103200.00;146610;575;46010;-75
2022/03/20 06:52:44;;;;;;;;;22.25;21.75;;;;;5.70;50.13;103192.66;146607;615;46016;-76
2022/03/20 06:55:36;;;;;;;;;13.25;11.25;;;;;5.52;50.96;103195.03;146608;647;46010;-75
2022/03/20 06:58:28;;;;;;;;;24.25;23.25;;;;;5.42;51.18;103205.06;146607;588;45042;-75
2022/03/20 07:01:20;;;;;;;;;13.75;13.75;;;;;5.03;51.04;103166.41;146609;569;46021;-74
2022/03/20 07:04:12;;;;;;;;;17.25;14.25;;;;;4.91;51.94;103162.47;146609;699;46012;-77
2022/03/20 07:07:05;;;;;;;;;18.00;15.00;;;;;5.07;52.57;103206.25;146613;730;45030;-81
2022/03/20 07:09:57;;;;;;;;;15.25;13.50;;;;;5.02;53.96;103223.72;146607;566;46014;-80
2022/03/20 07:13:48;;;;;;;;;20.75;17.25;;;;;4.97;55.09;103219.72;146607;595;46020;-81
2022/03/20 07:16:04;;;;;;;;;14.00;12.50;;;;;4.91;55.73;103224.16;146605;564;46016;-81
2022/03/20 07:18:56;;;;;;;;;13.50;12.50;;;;;4.84;56.89;103229.34;146609;634;46010;-79
2022/03/20 07:21:48;;;;;;;;;10.75;10.50;;;;;4.82;56.88;103229.16;146609;598;46013;-80
2022/03/20 07:24:42;;;;;;;;;27.50;24.75;;;;;4.80;57.95;103224.62;146608;629;46020;-73
2022/03/20 07:30:43;;;;;;;;;18.50;18.00;;;;;4.78;60.75;103226.06;146608;582;46021;-75
2022/03/20 07:33:35;;;;;;;;;16.75;15.75;;;;;4.89;59.36;103222.16;146609;778;45016;-75
2022/03/20 07:36:28;;;;;;;;;33.50;29.75;;;;;5.06;58.74;103225.91;146614;613;45029;-75
2022/03/20 07:39:20;;;;;;;;;29.75;28.75;;;;;5.26;59.14;103214.38;146607;575;46012;-73
2022/03/20 07:42:13;;;;;;;;;62.25;48.50;;;;;5.50;58.94;103217.09;146611;654;46010;-74
2022/03/20 07:45:05;;;;;;;;;19.50;17.50;;;;;5.70;58.97;103213.25;146607;597;45016;-74
2022/03/20 07:47:57;;;;;;;;;12.00;11.75;;;;;5.80;58.55;103203.25;146611;573;46010;-74
2022/03/20 07:50:50;;;;;;;;;11.00;9.75;;;;;5.93;58.41;103201.28;146608;589;46017;-75
2022/03/20 07:53:42;;;;;;;;;15.50;14.00;;;;;6.20;60.27;103193.09;146613;571;45021;-74
2022/03/20 07:56:36;;;;;;;;;13.50;13.00;;;;;6.48;58.46;103189.22;146608;569;46014;-75
2022/03/20 07:59:29;;;;;;;;;32.25;30.50;;;;;6.84;57.56;103180.97;146609;565;46010;-80
2022/03/20 08:02:21;;;;;;;;;32.25;30.25;;;;;7.31;56.84;103186.69;146607;577;45016;-78
2022/03/20 08:05:13;;;;;;;;;59.00;48.25;;;;;7.67;56.23;103186.09;146611;609;46010;-77
2022/03/20 08:08:05;;;;;;;;;24.25;21.75;;;;;7.66;54.22;103130.03;146608;629;46014;-77
2022/03/20 08:10:58;;;;;;;;;27.50;25.50;;;;;7.97;53.08;103167.59;146608;691;46020;-81
2022/03/20 08:13:50;;;;;;;;;25.00;22.00;;;;;7.89;52.18;103173.69;146610;565;46013;-79
2022/03/20 08:16:42;;;;;;;;;24.50;20.50;;;;;7.63;51.52;103161.59;146611;576;45022;-79
2022/03/20 08:19:34;;;;;;;;;26.00;22.00;;;;;7.34;53.13;103161.22;146607;575;46016;-79
2022/03/20 08:22:27;;;;;;;;;22.75;20.00;;;;;7.31;54.38;103156.62;146608;588;46020;-81
2022/03/20 08:25:19;;;;;;;;;17.25;16.00;;;;;7.55;53.86;103154.75;146609;563;46014;-79
2022/03/20 08:28:11;;;;;;;;;13.50;13.00;;;;;7.86;54.59;103151.94;146610;578;46020;-76
2022/03/20 08:31:03;;;;;;;;;19.75;16.25;;;;;8.07;52.31;103157.47;146608;578;46014;-76
2022/03/20 08:33:57;;;;;;;;;26.25;25.00;;;;;8.16;51.25;103153.22;146611;569;46010;-79
2022/03/20 08:36:48;;;;;;;;;20.50;18.75;;;;;8.18;51.09;103148.19;146608;564;45017;-79
2022/03/20 08:39:41;;;;;;;;;13.75;13.75;;;;;8.09;50.16;103138.72;146608;644;46010;-73
2022/03/20 08:42:33;;;;;;;;;22.00;20.50;;;;;8.02;50.39;103145.75;146605;599;46016;-74
2022/03/20 08:45:29;;;;;;;;;38.75;36.00;;;;;7.86;50.17;103108.03;146612;586;46010;-73
2022/03/20 08:48:22;;;;;;;;;20.50;18.00;;;;;8.16;49.80;103139.34;146605;612;46016;-73
2022/03/20 08:51:14;;;;;;;;;15.50;14.50;;;;;8.32;51.39;103130.69;146610;600;45025;-74
2022/03/20 08:54:07;;;;;;;;;16.75;13.50;;;;;8.43;52.47;103129.19;146607;573;46016;-73
2022/03/20 08:57:01;;;;;;;;;16.25;16.00;;;;;8.58;51.74;103123.69;146608;586;46010;-73
2022/03/20 08:59:54;;;;;;;;;10.00;10.00;;;;;8.77;48.57;103110.09;146607;581;46017;-72
2022/03/20 09:02:48;;;;;;;;;18.75;17.00;;;;;8.86;46.48;103110.09;146609;570;45020;-73
2022/03/20 09:05:41;;;;;;;;;18.25;16.75;;;;;8.82;47.01;103104.50;146608;570;46017;-74
2022/03/20 09:08:33;;;;;;;;;19.00;16.25;;;;;8.81;47.62;103100.06;146609;599;46010;-74
2022/03/20 09:11:25;;;;;;;;;15.50;14.50;;;;;8.94;46.77;103092.69;146607;617;46014;-74
2022/03/20 09:14:18;;;;;;;;;32.25;28.75;;;;;8.99;48.18;103094.97;146606;621;46916;-74
2022/03/20 09:20:20;;;;;;;;;24.75;18.75;;;;;9.05;46.57;103076.53;146610;633;46012;-73
2022/03/20 09:23:13;;;;;;;;;16.75;13.75;;;;;9.10;45.60;103093.41;146607;590;46014;-74
2022/03/20 09:26:05;;;;;;;;;17.75;15.00;;;;;9.20;45.38;103090.00;146609;602;46010;-76
2022/03/20 09:28:58;;;;;;;;;13.50;11.50;;;;;9.24;44.68;103080.06;146607;596;45017;-76
2022/03/20 09:31:50;;;;;;;;;24.00;21.00;;;;;9.24;46.52;103105.97;146610;609;46020;-76
2022/03/20 09:34:42;;;;;;;;;19.00;16.25;;;;;9.15;45.24;103089.56;146609;586;45015;-75
2022/03/20 09:37:34;;;;;;;;;20.00;16.50;;;;;9.17;45.21;103085.44;146608;624;46021;-78
2022/03/20 09:40:26;;;;;;;;;12.50;11.75;;;;;9.36;45.39;103076.84;146611;633;45026;-76
2022/03/20 09:43:19;;;;;;;;;13.50;11.75;;;;;9.49;44.24;103077.19;146611;576;45021;-68
2022/03/20 09:46:11;;;;;;;;;17.75;17.50;;;;;9.48;44.65;103076.28;146606;579;46016;-75
2022/03/20 09:49:07;;;;;;;;;8.75;8.00;;;;;9.74;46.63;103076.88;146608;607;47010;-75
2022/03/20 09:51:59;;;;;;;;;12.00;10.75;;;;;10.13;45.28;103064.06;146608;610;46014;-75
2022/03/20 09:54:51;;;;;;;;;13.50;13.00;;;;;10.24;40.10;103054.66;146613;588;45020;-75
2022/03/20 09:57:43;;;;;;;;;10.00;8.75;;;;;10.22;38.54;103062.31;146606;674;45919;-74
2022/03/20 10:00:36;;;;;;;;;39.75;32.75;;;;;10.27;42.24;103070.50;146612;563;46010;-75
2022/03/20 10:03:29;;;;;;;;;47.25;39.50;;;;;10.22;42.40;103061.38;146606;619;45919;-78
2022/03/20 10:06:21;;;;;;;;;22.50;21.50;;;;;10.20;42.45;103060.34;146610;599;46021;-72
2022/03/20 10:09:17;;;;;;;;;27.00;24.00;;;;;9.91;42.89;103012.87;146607;579;46014;-72
2022/03/20 10:12:11;;;;;;;;;33.50;29.75;;;;;10.01;43.17;103050.91;146612;641;46011;-77
2022/03/20 10:15:05;;;;;;;;;43.25;34.25;;;;;9.99;44.17;103054.13;146609;579;46012;-72
2022/03/20 10:18:23;;;;;;;;;26.25;24.50;;;;;9.88;44.83;103029.84;146611;591;46010;-75
2022/03/20 10:21:19;;;;;;;;;35.50;31.50;;;;;9.99;44.42;103057.63;146607;564;46016;-75
2022/03/20 10:24:22;;;;;;;;;22.75;20.50;;;;;9.91;44.58;103058.62;146612;619;46010;-82
2022/03/20 10:27:16;;;;;;;;;28.25;24.50;;;;;9.86;46.05;103053.00;146608;570;46016;-72
2022/03/20 10:30:12;;;;;;;;;14.50;14.25;;;;;9.85;45.02;103056.38;146610;583;46010;-75
2022/03/20 10:33:17;;;;;;;;;12.75;12.50;;;;;9.86;45.86;103070.22;146608;565;46014;-71
2022/03/20 10:36:23;;;;;;;;;16.00;11.25;;;;;9.88;44.75;103061.84;146613;601;45020;-73
2022/03/20 10:39:19;;;;;;;;;26.50;24.50;;;;;10.00;46.93;103049.09;146606;643;46016;-75
2022/03/20 10:42:15;;;;;;;;;20.25;17.50;;;;;10.06;44.70;103043.53;146611;577;46010;-76
2022/03/20 10:45:09;;;;;;;;;25.75;20.00;;;;;10.03;44.72;103044.19;146606;600;46920;-68
2022/03/20 10:48:05;;;;;;;;;18.25;18.00;;;;;10.13;45.72;103040.75;146609;563;46010;-72
2022/03/20 10:50:57;;;;;;;;;18.50;13.25;;;;;10.19;45.03;103038.69;146607;564;46016;-75
2022/03/20 10:54:01;;;;;;;;;40.25;32.25;;;;;10.16;44.64;103038.41;146611;563;46020;-76
2022/03/20 10:57:05;;;;;;;;;22.25;18.00;;;;;10.07;44.18;103047.97;146608;572;45016;-79
2022/03/20 11:00:14;;;;;;;;;29.25;25.00;;;;;9.97;46.15;103045.28;146613;627;45027;-76
2022/03/20 11:03:07;;;;;;;;;23.50;21.75;;;;;9.99;44.06;103026.50;146606;628;46016;-74
2022/03/20 11:06:00;;;;;;;;;19.50;17.25;;;;;10.16;45.07;103025.47;146611;574;46010;-75
2022/03/20 11:08:52;;;;;;;;;25.50;21.75;;;;;10.37;44.04;103021.28;146610;585;45016;-74
2022/03/20 11:11:55;;;;;;;;;29.75;26.25;;;;;10.41;44.04;103026.00;146612;566;46010;-75
2022/03/20 11:14:49;;;;;;;;;42.25;36.00;;;;;10.31;43.41;103008.72;146610;630;46012;-74
2022/03/20 11:17:53;;;;;;;;;22.00;20.75;;;;;10.44;44.01;103000.31;146612;570;45020;-74
2022/03/20 11:20:50;;;;;;;;;20.00;19.75;;;;;10.64;43.76;103000.38;146608;579;45919;-75
2022/03/20 11:23:42;;;;;;;;;9.00;8.00;;;;;10.72;40.72;103006.25;146611;581;46010;-74
2022/03/20 11:26:36;;;;;;;;;29.00;27.25;;;;;10.71;42.76;102995.72;146610;611;45036;-74
2022/03/20 11:29:31;;;;;;;;;53.25;43.00;;;;;10.73;43.29;102991.56;146610;577;46020;-74
2022/03/20 11:32:23;;;;;;;;;38.75;32.50;;;;;10.68;43.86;102998.94;146607;589;46016;-74
2022/03/20 11:35:16;;;;;;;;;26.75;23.25;;;;;10.53;44.01;103001.12;146609;571;46021;-75
2022/03/20 11:38:28;;;;;;;;;26.75;22.50;;;;;10.40;45.55;102995.63;146610;565;45020;-74
2022/03/20 11:41:23;;;;;;;;;29.75;27.75;;;;;10.31;45.02;102990.56;146610;599;46011;-76
2022/03/20 11:44:25;;;;;;;;;19.75;14.25;;;;;10.29;44.23;102992.09;146607;583;46016;-75
2022/03/20 11:47:29;;;;;;;;;17.75;15.75;;;;;10.24;44.78;102988.12;146609;661;46020;-75
2022/03/20 11:50:31;;;;;;;;;23.00;19.75;;;;;10.20;44.62;102975.69;146608;566;46012;-74
2022/03/20 11:53:36;;;;;;;;;13.50;11.25;;;;;10.18;43.78;102980.72;146611;569;46012;-74
2022/03/20 11:56:34;;;;;;;;;19.25;16.75;;;;;10.14;43.88;102967.38;146608;598;47012;-74
2022/03/20 11:59:50;;;;;;;;;16.50;14.25;;;;;9.62;41.31;102914.37;146610;589;46010;-76
2022/03/20 12:03:15;;;;;;;;;14.00;13.50;;;;;9.71;44.10;102956.66;146607;590;46015;-75
2022/03/20 12:06:47;;;;;;;;;23.25;20.00;;;;;9.59;44.73;102939.09;146610;583;46010;-74
2022/03/20 12:10:13;;;;;;;;;18.75;18.50;;;;;9.42;44.97;102888.38;146607;575;45016;-74
2022/03/20 12:13:20;;;;;;;;;27.75;25.50;;;;;9.94;44.87;102935.41;146610;572;46010;-75
2022/03/20 12:16:13;;;;;;;;;16.00;14.00;;;;;10.06;42.76;102920.03;146608;573;46014;-74
2022/03/20 12:19:12;;;;;;;;;28.50;23.50;;;;;10.12;44.00;102925.75;146610;597;46010;-75
2022/03/20 12:22:31;;;;;;;;;22.50;19.75;;;;;10.21;43.56;102919.53;146605;575;46016;-75
2022/03/20 12:25:46;;;;;;;;;24.00;19.50;;;;;9.99;43.97;102862.31;146610;591;45029;-74
2022/03/20 12:28:38;;;;;;;;;13.50;12.75;;;;;10.28;42.42;102906.38;146607;611;46016;-74
2022/03/20 12:31:31;;;;;;;;;13.25;12.75;;;;;10.19;42.42;102903.88;146611;590;46012;-74
2022/03/20 12:34:25;;;;;;;;;17.75;17.50;;;;;10.09;42.76;102906.41;146607;610;46017;-74
2022/03/20 12:37:39;;;;;;;;;29.50;28.50;;;;;9.99;43.45;102890.84;146611;575;46010;-74
2022/03/20 12:40:33;;;;;;;;;20.25;16.00;;;;;9.86;41.67;102896.63;146629;600;45013;-74
2022/03/20 12:43:26;;;;;;;;;30.00;26.00;;;;;9.72;43.03;102882.44;146629;563;46010;-75
2022/03/20 12:46:18;;;;;;;;;24.75;20.75;;;;;9.73;42.79;102880.75;146630;603;45012;-74
2022/03/20 12:49:12;;;;;;;;;19.00;17.50;;;;;9.74;42.63;102874.81;146628;596;45030;-75
2022/03/20 12:52:06;;;;;;;;;18.00;18.00;;;;;9.79;42.25;102870.94;146627;697;45016;-75
2022/03/20 12:55:10;;;;;;;;;20.25;16.50;;;;;9.88;43.65;102866.59;146628;599;45021;-75
2022/03/20 12:58:02;;;;;;;;;30.50;28.00;;;;;9.89;41.03;102870.97;146630;657;45012;-76
2022/03/20 13:00:58;;;;;;;;;19.75;17.50;;;;;9.88;41.73;102876.94;146628;576;45020;-76
2022/03/20 13:03:49;;;;;;;;;25.50;22.25;;;;;9.89;41.02;102876.16;146630;604;45012;-76
2022/03/20 13:06:42;;;;;;;;;19.75;18.25;;;;;9.88;42.14;102875.25;146630;569;45010;-75
2022/03/20 13:09:34;;;;;;;;;12.50;11.50;;;;;9.88;41.65;102866.59;146628;584;45016;-76
2022/03/20 13:12:26;;;;;;;;;11.75;11.75;;;;;9.92;41.81;102871.25;146629;588;45020;-76
2022/03/20 13:15:35;;;;;;;;;15.25;14.00;;;;;9.95;42.62;102881.88;146627;600;45016;-76
2022/03/20 13:18:30;;;;;;;;;13.00;12.75;;;;;9.93;41.28;102871.38;146631;589;45011;-76
2022/03/20 13:21:22;;;;;;;;;21.75;17.75;;;;;9.90;41.63;102872.78;146626;669;45016;-76
2022/03/20 13:24:16;;;;;;;;;19.00;17.50;;;;;9.56;39.60;102824.84;146624;667;46916;-75
2022/03/20 13:27:10;;;;;;;;;22.50;21.50;;;;;9.80;42.36;102865.88;146625;565;45012;-76
2022/03/20 13:30:02;;;;;;;;;18.50;15.50;;;;;9.91;41.49;102872.03;146629;587;45020;-74
2022/03/20 13:33:01;;;;;;;;;22.50;21.00;;;;;9.95;41.93;102868.94;146630;564;45012;-75
2022/03/20 13:35:56;;;;;;;;;28.00;26.25;;;;;9.98;41.30;102865.69;146630;596;45010;-76
2022/03/20 13:38:51;;;;;;;;;22.00;19.25;;;;;9.94;40.98;102860.25;146619;571;45016;-77
2022/03/20 13:41:48;;;;;;;;;12.75;10.75;;;;;9.87;40.56;102865.66;146609;573;46010;-75
2022/03/20 13:44:43;;;;;;;;;15.00;14.00;;;;;9.55;41.09;102817.88;146610;615;45016;-76
2022/03/20 13:47:36;;;;;;;;;18.75;15.00;;;;;9.74;41.68;102859.25;146611;571;45021;-76
2022/03/20 13:50:29;;;;;;;;;30.75;28.25;;;;;9.75;41.25;102854.22;146606;616;46919;-76
2022/03/20 13:53:30;;;;;;;;;26.75;22.75;;;;;9.79;41.54;102847.63;146609;571;46010;-75